Resolve — WDD7117 — position and weather

sailwx.info

Track history (hours):
 
Tides and Currents Weather Stations Pressure Air Temp Water Temp Dewpoint Dewpoint Depression Visibility Wind Speed Wind Dir Waves Ship Positions

Resolve

Owner: Intrepid Ship Management, jacksonville, FL. More information available from US FCC via Universal Licensing System and Coast Guard Vessel Documentation Center.

Last reported at 2018-May-22 08:44 UTC. Time now 2018-May-22 21:12 UTC.
Position N 25°21' W 080°03'.

Length 209 m; draft 6.6 m.

Type: Towing. MMSI: 367336000.

Date/timePositionNaut miles runAvg speedWind from/ knotsBaromVisibWave heightAir tempDewpointWater temp
2018-May-22 08:44N 25°21' W 080°03'1 4.4
2018-May-22 08:29N 25°22' W 080°02'2 4.4
2018-May-22 08:00N 25°24' W 080°01'2 4.4
2018-May-22 07:30N 25°26' W 080°01'2 4.3
2018-May-22 07:01N 25°28' W 080°01'2 4.1
2018-May-22 06:31N 25°30' W 080°01'2 4.2
2018-May-22 06:00N 25°32' W 080°00'2 4.1
2018-May-22 05:30N 25°34' W 080°00'2 4.1
2018-May-22 05:01N 25°36' W 080°00'2 4.0
2018-May-22 04:30N 25°38' W 080°00'2 4.0
2018-May-22 04:00N 25°40' W 080°01'2 4.1
2018-May-22 03:30N 25°42' W 080°01'2 4.1
2018-May-22 03:00N 25°44' W 080°01'2 4.0
2018-May-22 02:30N 25°46' W 080°01'2 4.4
2018-May-22 02:00N 25°48' W 080°01'2 4.7
2018-May-22 01:30N 25°51' W 080°01'3 5.5
2018-May-22 01:00N 25°53' W 080°01'4 7.8
2018-May-22 00:30N 25°57' W 080°01'3 6.5
2018-May-22 00:00N 26°00' W 080°01'2 5.0
2018-May-21 23:30N 26°03' W 080°00'2 4.2
2018-May-21 23:00N 26°05' W 080°01'3 5.1
2018-May-21 22:30N 26°08' W 080°00'2 4.9
2018-May-21 22:00N 26°10' W 080°00'3 4.7
2018-May-21 21:27N 26°13' W 080°00'2 4.7
2018-May-21 21:01N 26°15' W 080°00'2 4.6
2018-May-21 20:31N 26°17' W 080°00'3 4.6
2018-May-21 19:57N 26°20' W 079°60'2 4.7
2018-May-21 19:30N 26°22' W 079°60'21 4.3
2018-May-21 14:34N 26°43' W 079°58'1 4.0
2018-May-21 14:26N 26°44' W 079°58'2 4.2
2018-May-21 14:00N 26°45' W 079°58'2 4.1
2018-May-21 13:30N 26°47' W 079°58'2 4.2
2018-May-21 13:00N 26°49' W 079°58'3 6.8
2018-May-21 12:30N 26°53' W 079°59'4 7.7
2018-May-21 12:00N 26°57' W 079°59'3 5.5
2018-May-21 11:30N 26°59' W 079°59'2 4.4
2018-May-21 11:00N 27°02' W 079°59'3 5.7
2018-May-21 10:30N 27°04' W 079°60'282 7.9
2018-May-19 22:45N 31°46' W 080°20'  
2018-May-15 22:27N 27°07' W 080°00'511.7
2018-May-15 22:00N 27°02' W 079°59'714.0
2018-May-15 21:30N 26°55' W 079°57'714.3
2018-May-15 21:00N 26°48' W 079°56'714.3
2018-May-15 20:30N 26°41' W 079°57'714.1
2018-May-15 20:00N 26°34' W 079°57'611.5
2018-May-15 19:30N 26°28' W 079°58'611.3
2018-May-15 19:00N 26°22' W 079°58'612.3
2018-May-15 18:31N 26°16' W 079°58'612.9
2018-May-15 18:00N 26°10' W 079°59'815.8
2018-May-15 17:30N 26°02' W 079°59'815.5
2018-May-15 17:00N 25°54' W 080°00'713.5
2018-May-15 16:30N 25°47' W 080°00'713.4
2018-May-15 16:00N 25°41' W 080°01'713.5
2018-May-15 15:30N 25°34' W 080°01'713.5
2018-May-15 15:00N 25°27' W 080°01'713.5
2018-May-15 14:30N 25°21' W 080°03'713.4
2018-May-15 14:00N 25°14' W 080°06'  
2018-May-12 10:13N 28°07' W 092°48'2 9.8
2018-May-12 09:59N 28°09' W 092°50'5 9.7
2018-May-12 09:30N 28°12' W 092°53'5 9.8
2018-May-12 09:00N 28°15' W 092°58'  
Track history (hours):
 
Tides and Currents Weather Stations Pressure Air Temp Water Temp Dewpoint Dewpoint Depression Visibility Wind Speed Wind Dir Waves Ship Positions

Resolve

Owner: Intrepid Ship Management, jacksonville, FL. More information available from US FCC via Universal Licensing System and Coast Guard Vessel Documentation Center.

Last reported at 2018-May-22 08:44 UTC. Time now 2018-May-22 21:12 UTC.
Position N 25°21' W 080°03'.

Length 209 m; draft 6.6 m.

Type: Towing. MMSI: 367336000.

Date/timePositionNaut miles runAvg speedWind from/ knotsBaromVisibWave heightAir tempDewpointWater temp
2018-May-22 08:44N 25°21' W 080°03'1 4.4
2018-May-22 08:29N 25°22' W 080°02'2 4.4
2018-May-22 08:00N 25°24' W 080°01'2 4.4
2018-May-22 07:30N 25°26' W 080°01'2 4.3
2018-May-22 07:01N 25°28' W 080°01'2 4.1
2018-May-22 06:31N 25°30' W 080°01'2 4.2
2018-May-22 06:00N 25°32' W 080°00'2 4.1
2018-May-22 05:30N 25°34' W 080°00'2 4.1
2018-May-22 05:01N 25°36' W 080°00'2 4.0
2018-May-22 04:30N 25°38' W 080°00'2 4.0
2018-May-22 04:00N 25°40' W 080°01'2 4.1
2018-May-22 03:30N 25°42' W 080°01'2 4.1
2018-May-22 03:00N 25°44' W 080°01'2 4.0
2018-May-22 02:30N 25°46' W 080°01'2 4.4
2018-May-22 02:00N 25°48' W 080°01'2 4.7
2018-May-22 01:30N 25°51' W 080°01'3 5.5
2018-May-22 01:00N 25°53' W 080°01'4 7.8
2018-May-22 00:30N 25°57' W 080°01'3 6.5
2018-May-22 00:00N 26°00' W 080°01'2 5.0
2018-May-21 23:30N 26°03' W 080°00'2 4.2
2018-May-21 23:00N 26°05' W 080°01'3 5.1
2018-May-21 22:30N 26°08' W 080°00'2 4.9
2018-May-21 22:00N 26°10' W 080°00'3 4.7
2018-May-21 21:27N 26°13' W 080°00'2 4.7
2018-May-21 21:01N 26°15' W 080°00'2 4.6
2018-May-21 20:31N 26°17' W 080°00'3 4.6
2018-May-21 19:57N 26°20' W 079°60'2 4.7
2018-May-21 19:30N 26°22' W 079°60'21 4.3
2018-May-21 14:34N 26°43' W 079°58'1 4.0
2018-May-21 14:26N 26°44' W 079°58'2 4.2
2018-May-21 14:00N 26°45' W 079°58'2 4.1
2018-May-21 13:30N 26°47' W 079°58'2 4.2
2018-May-21 13:00N 26°49' W 079°58'3 6.8
2018-May-21 12:30N 26°53' W 079°59'4 7.7
2018-May-21 12:00N 26°57' W 079°59'3 5.5
2018-May-21 11:30N 26°59' W 079°59'2 4.4
2018-May-21 11:00N 27°02' W 079°59'3 5.7
2018-May-21 10:30N 27°04' W 079°60'282 7.9
2018-May-19 22:45N 31°46' W 080°20'  
2018-May-15 22:27N 27°07' W 080°00'511.7
2018-May-15 22:00N 27°02' W 079°59'714.0
2018-May-15 21:30N 26°55' W 079°57'714.3
2018-May-15 21:00N 26°48' W 079°56'714.3
2018-May-15 20:30N 26°41' W 079°57'714.1
2018-May-15 20:00N 26°34' W 079°57'611.5
2018-May-15 19:30N 26°28' W 079°58'611.3
2018-May-15 19:00N 26°22' W 079°58'612.3
2018-May-15 18:31N 26°16' W 079°58'612.9
2018-May-15 18:00N 26°10' W 079°59'815.8
2018-May-15 17:30N 26°02' W 079°59'815.5
2018-May-15 17:00N 25°54' W 080°00'713.5
2018-May-15 16:30N 25°47' W 080°00'713.4
2018-May-15 16:00N 25°41' W 080°01'713.5
2018-May-15 15:30N 25°34' W 080°01'713.5
2018-May-15 15:00N 25°27' W 080°01'713.5
2018-May-15 14:30N 25°21' W 080°03'713.4
2018-May-15 14:00N 25°14' W 080°06'  
2018-May-12 10:13N 28°07' W 092°48'2 9.8
2018-May-12 09:59N 28°09' W 092°50'5 9.7
2018-May-12 09:30N 28°12' W 092°53'5 9.8
2018-May-12 09:00N 28°15' W 092°58'  

Dump ship's entire track history